createdAt,value
2023-01-25T00:02:16.558Z,83.15
2023-01-25T00:04:44.689Z,83.41
2023-01-25T00:07:12.799Z,83.34
2023-01-25T00:09:42.298Z,82.70
2023-01-25T00:12:10.494Z,82.38
2023-01-25T00:14:38.581Z,82.43
2023-01-25T00:17:06.919Z,82.37
2023-01-25T00:19:35.044Z,82.67
2023-01-25T00:22:03.193Z,81.96
2023-01-25T00:24:31.328Z,81.39
2023-01-25T00:27:00.832Z,80.91
2023-01-25T00:29:28.935Z,81.11
2023-01-25T00:32:24.816Z,81.41
2023-01-25T00:34:53.479Z,80.58
2023-01-25T00:37:29.663Z,81.05
2023-01-25T00:39:58.025Z,81.35
2023-01-25T00:42:27.548Z,81.34
2023-01-25T00:44:55.687Z,81.45
2023-01-25T00:47:23.820Z,82.05
2023-01-25T00:49:51.954Z,81.98
2023-01-25T00:52:20.844Z,82.31
2023-01-25T00:54:48.985Z,82.17
2023-01-25T00:57:17.132Z,81.88
2023-01-25T00:59:47.486Z,81.98
2023-01-25T01:02:15.635Z,82.18
2023-01-25T01:04:43.899Z,82.75
2023-01-25T01:07:14.844Z,83.12
2023-01-25T01:09:43.272Z,82.78
2023-01-25T01:12:11.441Z,82.40
2023-01-25T01:14:39.895Z,82.13
2023-01-25T01:17:09.498Z,81.97
2023-01-25T01:19:37.678Z,82.41
2023-01-25T01:22:05.792Z,82.19
2023-01-25T01:24:33.925Z,82.31
2023-01-25T01:27:02.059Z,82.72
2023-01-25T01:29:30.248Z,82.49
2023-01-25T01:31:58.433Z,82.60
2023-01-25T01:34:28.354Z,82.82
2023-01-25T01:36:56.478Z,82.40
2023-01-25T01:39:24.608Z,81.93
2023-01-25T01:41:52.840Z,82.04
2023-01-25T01:44:43.191Z,81.84
2023-01-25T01:47:19.218Z,81.28
2023-01-25T01:49:55.152Z,81.01
2023-01-25T01:52:30.884Z,80.91
2023-01-25T01:55:04.684Z,81.29
2023-01-25T01:57:41.508Z,80.74
2023-01-25T02:00:17.625Z,81.60
2023-01-25T02:02:47.278Z,81.88
2023-01-25T02:05:24.734Z,81.17
2023-01-25T02:07:55.949Z,81.37
2023-01-25T02:10:27.960Z,81.88
2023-01-25T02:12:59.782Z,82.49
2023-01-25T02:15:34.546Z,82.76
2023-01-25T02:18:03.416Z,82.37
2023-01-25T02:20:39.332Z,82.43
2023-01-25T02:23:20.772Z,82.69
2023-01-25T02:25:50.541Z,82.70
2023-01-25T02:28:24.115Z,82.39
2023-01-25T02:30:52.487Z,82.70
2023-01-25T02:33:23.399Z,82.30
2023-01-25T02:35:57.589Z,81.87
2023-01-25T02:38:26.288Z,81.67
2023-01-25T02:41:05.186Z,81.64
2023-01-25T02:43:36.121Z,81.33
2023-01-25T02:46:15.778Z,81.58
2023-01-25T02:48:43.925Z,81.08
2023-01-25T02:51:12.525Z,81.84
2023-01-25T02:53:40.679Z,80.64
2023-01-25T02:56:10.321Z,81.57
2023-01-25T02:58:38.456Z,82.12
2023-01-25T03:01:06.717Z,82.07
2023-01-25T03:03:34.827Z,82.37
2023-01-25T03:06:02.956Z,82.39
2023-01-25T03:08:31.178Z,82.45
2023-01-25T03:10:59.898Z,82.55
2023-01-25T03:13:30.400Z,83.05
2023-01-25T03:16:02.233Z,83.36
2023-01-25T03:18:30.454Z,83.36
2023-01-25T03:21:04.780Z,83.32
2023-01-25T03:23:33.055Z,82.99
2023-01-25T03:26:13.955Z,83.16
2023-01-25T03:28:43.996Z,83.08
2023-01-25T03:31:15.397Z,83.11
2023-01-25T03:33:44.189Z,83.22
2023-01-25T03:36:13.064Z,83.20
2023-01-25T03:38:41.217Z,82.88
2023-01-25T03:41:12.835Z,83.09
2023-01-25T03:43:40.982Z,83.18
2023-01-25T03:46:10.511Z,83.06
2023-01-25T03:48:38.601Z,82.95
2023-01-25T03:51:07.123Z,82.29
2023-01-25T03:53:35.204Z,82.65
2023-01-25T03:56:08.202Z,82.53
2023-01-25T03:58:37.906Z,82.94
2023-01-25T04:01:08.593Z,83.18
2023-01-25T04:03:38.091Z,82.67
2023-01-25T04:06:07.616Z,82.34
2023-01-25T04:08:36.617Z,81.39
2023-01-25T04:11:08.733Z,81.76
2023-01-25T04:13:38.895Z,82.13
2023-01-25T04:16:08.932Z,82.65
2023-01-25T04:18:38.684Z,82.28
2023-01-25T04:21:07.122Z,82.57
2023-01-25T04:23:35.263Z,82.51
2023-01-25T04:26:06.203Z,82.11
2023-01-25T04:28:36.060Z,81.84
2023-01-25T04:31:06.032Z,81.66
2023-01-25T04:33:34.769Z,81.99
2023-01-25T04:36:04.849Z,82.32
2023-01-25T04:38:33.067Z,82.24
2023-01-25T04:41:01.378Z,81.77
2023-01-25T04:43:29.615Z,81.93
2023-01-25T04:45:57.927Z,82.26
2023-01-25T04:48:26.103Z,82.39
2023-01-25T04:50:54.246Z,82.08
2023-01-25T04:53:23.838Z,82.06
2023-01-25T04:55:51.991Z,82.03
2023-01-25T04:58:20.129Z,81.75
2023-01-25T05:00:48.222Z,82.08
2023-01-25T05:03:16.397Z,82.41
2023-01-25T05:05:48.395Z,82.03
2023-01-25T05:08:16.537Z,82.65
2023-01-25T05:10:46.347Z,83.07
2023-01-25T05:13:14.558Z,83.59
2023-01-25T05:15:42.631Z,83.73
2023-01-25T05:18:10.798Z,84.03
2023-01-25T05:20:38.935Z,83.93
2023-01-25T05:23:07.054Z,83.80
2023-01-25T05:25:52.766Z,83.81
2023-01-25T05:28:22.215Z,84.00
2023-01-25T05:30:50.363Z,83.87
2023-01-25T05:33:18.495Z,82.36
2023-01-25T05:35:46.586Z,82.58
2023-01-25T05:38:14.704Z,83.22
2023-01-25T05:40:42.799Z,83.52
2023-01-25T05:43:11.219Z,83.82
2023-01-25T05:45:41.029Z,84.00
2023-01-25T05:48:09.153Z,84.19
2023-01-25T05:50:37.246Z,84.17
2023-01-25T05:53:05.383Z,83.34
2023-01-25T05:55:35.889Z,83.22
2023-01-25T05:58:04.031Z,82.19
2023-01-25T06:00:32.183Z,81.93
2023-01-25T06:03:03.623Z,82.74
2023-01-25T06:05:31.760Z,82.96
2023-01-25T06:08:00.071Z,83.12
2023-01-25T06:10:28.183Z,83.01
2023-01-25T06:12:59.904Z,82.79
2023-01-25T06:15:28.299Z,82.92
2023-01-25T06:17:57.021Z,82.95
2023-01-25T06:20:26.480Z,82.69
2023-01-25T06:22:55.030Z,82.47
2023-01-25T06:25:23.366Z,82.46
2023-01-25T06:27:51.699Z,82.55
2023-01-25T06:30:20.068Z,82.17
2023-01-25T06:32:50.226Z,82.05
2023-01-25T06:35:18.450Z,82.37
2023-01-25T06:37:48.561Z,82.45
2023-01-25T06:40:17.191Z,82.60
2023-01-25T06:42:45.349Z,82.63
2023-01-25T06:45:13.522Z,82.69
2023-01-25T06:47:41.763Z,82.32
2023-01-25T06:50:11.780Z,82.17
2023-01-25T06:52:40.681Z,82.49
2023-01-25T06:55:13.914Z,82.31
2023-01-25T06:57:42.070Z,81.72
2023-01-25T07:00:12.182Z,81.87
2023-01-25T07:02:40.541Z,82.00
2023-01-25T07:05:10.117Z,81.31
2023-01-25T07:07:38.431Z,81.70
2023-01-25T07:10:09.425Z,81.83
2023-01-25T07:12:37.536Z,82.55
2023-01-25T07:15:07.115Z,82.89
2023-01-25T07:17:35.681Z,82.92
2023-01-25T07:20:03.840Z,83.03
2023-01-25T07:22:31.933Z,82.83
2023-01-25T07:25:02.107Z,82.92
2023-01-25T07:27:35.086Z,81.39
2023-01-25T07:30:03.922Z,80.87
2023-01-25T07:32:32.027Z,81.54
2023-01-25T07:35:00.140Z,81.49
2023-01-25T07:37:28.605Z,81.73
2023-01-25T07:39:58.175Z,81.27
2023-01-25T07:42:26.304Z,81.69
2023-01-25T07:44:55.790Z,81.08
2023-01-25T07:47:24.017Z,81.54
2023-01-25T07:49:52.220Z,81.78
2023-01-25T07:52:20.342Z,82.10
2023-01-25T07:54:49.941Z,82.30
2023-01-25T07:57:18.123Z,82.46
2023-01-25T07:59:46.198Z,82.51
2023-01-25T08:02:15.648Z,82.33
2023-01-25T08:04:45.418Z,82.40
2023-01-25T08:07:14.718Z,82.43
2023-01-25T08:09:43.293Z,82.66
2023-01-25T08:12:11.377Z,81.87
2023-01-25T08:14:39.532Z,81.82
2023-01-25T08:17:07.703Z,80.77
2023-01-25T08:19:37.222Z,80.53
2023-01-25T08:22:07.955Z,81.02
2023-01-25T08:24:36.251Z,80.69
2023-01-25T08:27:04.562Z,80.53
2023-01-25T08:29:32.689Z,80.20
2023-01-25T08:32:04.253Z,80.50
2023-01-25T08:34:33.622Z,80.58
2023-01-25T08:37:03.357Z,80.67
2023-01-25T08:39:31.472Z,80.92
2023-01-25T08:42:00.229Z,81.06
2023-01-25T08:44:28.345Z,81.15
2023-01-25T08:46:56.451Z,81.17
2023-01-25T08:49:24.594Z,80.85
2023-01-25T08:51:52.947Z,80.79
2023-01-25T08:54:22.474Z,80.23
2023-01-25T08:56:50.664Z,79.77
2023-01-25T08:59:18.743Z,80.09
2023-01-25T09:01:46.951Z,80.04
2023-01-25T09:04:15.114Z,79.39
2023-01-25T09:06:43.262Z,80.09
2023-01-25T09:09:12.780Z,80.31
2023-01-25T09:11:42.224Z,79.93
2023-01-25T09:14:10.450Z,79.59
2023-01-25T09:16:38.572Z,79.98
2023-01-25T09:19:07.509Z,80.48
2023-01-25T09:21:37.089Z,80.55
2023-01-25T09:24:07.746Z,79.82
2023-01-25T09:26:38.971Z,79.50
2023-01-25T09:29:10.871Z,79.79
2023-01-25T09:31:43.538Z,79.35
2023-01-25T09:34:13.986Z,79.34
2023-01-25T09:36:42.154Z,79.45
2023-01-25T09:39:12.238Z,79.51
2023-01-25T09:42:22.329Z,78.85
2023-01-25T09:45:20.736Z,79.45
2023-01-25T09:47:59.122Z,79.56
2023-01-25T09:51:00.963Z,79.88
2023-01-25T09:53:36.472Z,78.85
2023-01-25T09:56:13.249Z,77.59
2023-01-25T09:58:46.973Z,78.48
2023-01-25T10:01:38.118Z,79.01
2023-01-25T10:04:15.787Z,78.86
2023-01-25T10:06:55.133Z,79.25
2023-01-25T10:09:40.960Z,79.16
2023-01-25T10:12:19.650Z,79.19
2023-01-25T10:14:48.453Z,79.24
2023-01-25T10:17:32.161Z,78.11
2023-01-25T10:20:26.703Z,77.95
2023-01-25T10:23:33.281Z,77.04
2023-01-25T10:26:05.877Z,77.81
2023-01-25T10:28:43.640Z,77.90
2023-01-25T10:31:20.398Z,78.27
2023-01-25T10:33:50.552Z,78.64
2023-01-25T10:36:24.441Z,78.80
2023-01-25T10:38:59.017Z,78.00
2023-01-25T10:41:37.058Z,77.62
2023-01-25T10:44:24.560Z,77.21
2023-01-25T10:47:02.948Z,76.94
2023-01-25T10:49:42.523Z,77.02
2023-01-25T10:52:17.694Z,77.02
2023-01-25T10:54:46.424Z,76.97
2023-01-25T10:57:20.252Z,76.97
2023-01-25T10:59:53.753Z,77.02
2023-01-25T11:02:44.982Z,76.83
2023-01-25T11:05:34.645Z,76.86
2023-01-25T11:08:24.499Z,76.07
2023-01-25T11:10:54.395Z,75.60
2023-01-25T11:13:26.520Z,75.57
2023-01-25T11:16:21.539Z,75.05
2023-01-25T11:18:56.279Z,74.53
2023-01-25T11:21:28.034Z,74.26
2023-01-25T11:24:16.592Z,74.66
2023-01-25T11:26:45.851Z,74.50
2023-01-25T11:29:20.226Z,74.26
2023-01-25T11:31:53.736Z,74.68
2023-01-25T11:34:27.559Z,73.27
2023-01-25T11:37:28.693Z,73.89
2023-01-25T11:40:12.411Z,74.31
2023-01-25T11:42:58.545Z,74.16
2023-01-25T11:46:04.027Z,73.99
2023-01-25T11:49:17.911Z,72.91
2023-01-25T11:51:57.428Z,73.68
2023-01-25T11:54:53.652Z,74.40
2023-01-25T11:57:46.187Z,73.76
2023-01-25T12:00:41.284Z,74.13
2023-01-25T12:03:59.944Z,73.37
2023-01-25T12:06:44.998Z,73.64
2023-01-25T12:09:39.200Z,73.59
2023-01-25T12:12:22.842Z,74.08
2023-01-25T12:15:09.316Z,73.92
2023-01-25T12:18:04.081Z,73.68
2023-01-25T12:21:07.901Z,74.06
2023-01-25T12:24:05.219Z,74.31
2023-01-25T12:26:47.164Z,73.67
2023-01-25T12:29:27.654Z,73.90
2023-01-25T12:32:02.829Z,74.17
2023-01-25T12:34:38.568Z,73.71
2023-01-25T12:37:18.103Z,73.85
2023-01-25T12:39:53.361Z,73.52
2023-01-25T12:42:30.798Z,73.99
2023-01-25T12:45:11.493Z,73.89
2023-01-25T12:47:48.509Z,73.87
2023-01-25T12:50:23.799Z,73.78
2023-01-25T12:52:59.304Z,73.80
2023-01-25T12:55:28.680Z,72.90
2023-01-25T12:58:07.997Z,73.13
2023-01-25T13:00:50.352Z,72.36
2023-01-25T13:03:30.804Z,71.69
2023-01-25T13:06:10.731Z,72.51
2023-01-25T13:08:54.568Z,72.90
2023-01-25T13:11:27.943Z,73.04
2023-01-25T13:14:29.552Z,73.11
2023-01-25T13:17:31.571Z,73.17
2023-01-25T13:20:00.994Z,73.16
2023-01-25T13:22:59.428Z,73.68
2023-01-25T13:25:28.570Z,73.43
2023-01-25T13:28:42.813Z,72.54
2023-01-25T13:31:51.934Z,72.94
2023-01-25T13:34:58.720Z,73.64
2023-01-25T13:37:30.025Z,73.65
2023-01-25T13:40:08.329Z,72.76
2023-01-25T13:42:40.024Z,73.47
2023-01-25T13:45:19.869Z,73.78
2023-01-25T13:48:06.667Z,73.22
2023-01-25T13:50:39.935Z,73.75
2023-01-25T13:53:21.836Z,72.94
2023-01-25T13:55:53.318Z,73.28
2023-01-25T13:58:27.343Z,73.47
2023-01-25T14:00:59.113Z,73.63
2023-01-25T14:03:34.804Z,73.02
2023-01-25T14:06:04.403Z,73.41
2023-01-25T14:08:33.843Z,73.64
2023-01-25T14:11:02.576Z,73.45
2023-01-25T14:13:30.717Z,73.73
2023-01-25T14:16:01.850Z,73.41
2023-01-25T14:18:34.834Z,73.65
2023-01-25T14:21:17.883Z,73.41
2023-01-25T14:23:46.296Z,72.93
2023-01-25T14:26:21.712Z,72.78
2023-01-25T14:29:01.182Z,73.45
2023-01-25T14:31:35.685Z,73.96
2023-01-25T14:34:06.150Z,74.62
2023-01-25T14:36:35.892Z,74.50
2023-01-25T14:39:17.219Z,74.11
2023-01-25T14:42:00.096Z,73.64
2023-01-25T14:44:31.223Z,73.52
2023-01-25T14:47:38.497Z,73.13
2023-01-25T14:50:37.313Z,73.35
2023-01-25T14:53:16.363Z,73.55
2023-01-25T14:55:46.502Z,73.34
2023-01-25T14:58:20.961Z,73.75
2023-01-25T15:00:54.213Z,73.74
2023-01-25T15:03:23.037Z,73.89
2023-01-25T15:05:52.555Z,74.39
2023-01-25T15:08:31.221Z,74.40
2023-01-25T15:11:21.058Z,73.73
2023-01-25T15:13:49.427Z,73.15
2023-01-25T15:16:17.599Z,73.79
2023-01-25T15:18:48.426Z,74.20
2023-01-25T15:21:20.560Z,74.08
2023-01-25T15:23:50.698Z,74.52
2023-01-25T15:26:24.421Z,74.80
2023-01-25T15:28:56.029Z,74.72
2023-01-25T15:31:28.889Z,74.74
2023-01-25T15:33:58.257Z,75.13
2023-01-25T15:36:27.845Z,75.40
2023-01-25T15:38:56.155Z,75.71
2023-01-25T15:41:24.651Z,75.75
2023-01-25T15:43:53.110Z,75.52
2023-01-25T15:46:26.301Z,75.33
2023-01-25T15:48:55.085Z,75.93
2023-01-25T15:51:23.845Z,75.92
2023-01-25T15:53:53.857Z,75.54
2023-01-25T15:56:27.361Z,75.42
2023-01-25T15:58:59.847Z,74.62
2023-01-25T16:01:30.211Z,74.54
2023-01-25T16:04:00.609Z,73.94
2023-01-25T16:06:41.988Z,74.49
2023-01-25T16:09:21.036Z,74.96
2023-01-25T16:11:53.100Z,75.21
2023-01-25T16:14:23.553Z,75.77
2023-01-25T16:16:53.899Z,75.01
2023-01-25T16:19:25.044Z,74.18
2023-01-25T16:21:53.605Z,75.06
2023-01-25T16:24:23.331Z,75.03
2023-01-25T16:26:55.400Z,75.40
2023-01-25T16:29:24.025Z,74.45
2023-01-25T16:31:53.323Z,74.80
2023-01-25T16:34:22.142Z,74.23
2023-01-25T16:36:51.269Z,73.80
2023-01-25T16:39:23.493Z,73.69
2023-01-25T16:41:52.395Z,74.73
2023-01-25T16:44:20.961Z,73.87
2023-01-25T16:46:50.479Z,74.29
2023-01-25T16:49:21.412Z,75.17
2023-01-25T16:51:50.483Z,75.51
2023-01-25T16:54:20.429Z,75.18
2023-01-25T16:56:51.568Z,75.29
2023-01-25T16:59:21.787Z,73.81
2023-01-25T17:01:50.545Z,74.25
2023-01-25T17:04:18.939Z,74.37
2023-01-25T17:06:50.131Z,74.68
2023-01-25T17:09:25.526Z,73.86
2023-01-25T17:11:56.599Z,74.43
2023-01-25T17:14:24.866Z,74.45
2023-01-25T17:16:55.568Z,74.95
2023-01-25T17:19:23.993Z,75.36
2023-01-25T17:21:52.086Z,75.73
2023-01-25T17:24:22.505Z,76.00
2023-01-25T17:26:52.002Z,75.77
2023-01-25T17:29:21.767Z,75.96
2023-01-25T17:31:50.189Z,75.60
2023-01-25T17:34:21.741Z,73.73
2023-01-25T17:36:51.626Z,73.88
2023-01-25T17:39:22.130Z,74.52
2023-01-25T17:41:52.771Z,74.89
2023-01-25T17:44:24.493Z,75.18
2023-01-25T17:46:53.244Z,75.26
2023-01-25T17:49:22.481Z,75.37
2023-01-25T17:51:50.832Z,75.08
2023-01-25T17:54:19.640Z,74.95
2023-01-25T17:56:47.814Z,74.48
2023-01-25T17:59:15.935Z,74.30
2023-01-25T18:01:45.495Z,74.11
2023-01-25T18:04:17.329Z,74.24
2023-01-25T18:06:45.845Z,73.80
2023-01-25T18:09:13.972Z,73.68
2023-01-25T18:11:42.144Z,73.96
2023-01-25T18:14:15.238Z,74.40
2023-01-25T18:16:45.444Z,74.50
2023-01-25T18:19:14.034Z,74.38
2023-01-25T18:21:43.228Z,74.43
2023-01-25T18:24:28.276Z,74.37
2023-01-25T18:27:04.885Z,73.38
2023-01-25T18:29:53.416Z,73.68
2023-01-25T18:32:23.657Z,73.71
2023-01-25T18:34:52.201Z,74.09
2023-01-25T18:37:21.737Z,73.47
2023-01-25T18:39:55.390Z,73.89
2023-01-25T18:42:27.211Z,73.96
2023-01-25T18:44:55.394Z,74.01
2023-01-25T18:47:25.062Z,74.13
2023-01-25T18:49:54.289Z,74.68
2023-01-25T18:52:24.178Z,74.89
2023-01-25T18:54:52.686Z,74.18
2023-01-25T18:57:21.313Z,73.06
2023-01-25T18:59:49.416Z,74.16
2023-01-25T19:02:19.251Z,73.14
2023-01-25T19:04:48.705Z,73.30
2023-01-25T19:07:17.236Z,73.90
2023-01-25T19:09:45.320Z,74.37
2023-01-25T19:12:13.424Z,74.68
2023-01-25T19:14:41.483Z,74.26
2023-01-25T19:17:09.684Z,73.99
2023-01-25T19:19:37.847Z,72.77
2023-01-25T19:22:07.247Z,72.93
2023-01-25T19:24:35.353Z,73.27
2023-01-25T19:27:04.650Z,73.39
2023-01-25T19:29:32.858Z,73.73
2023-01-25T19:32:00.989Z,73.87
2023-01-25T19:34:29.123Z,74.12
2023-01-25T19:36:57.345Z,74.29
2023-01-25T19:39:26.833Z,74.15
2023-01-25T19:41:55.060Z,73.72
2023-01-25T19:44:24.796Z,74.19
2023-01-25T19:46:52.952Z,73.92
2023-01-25T19:49:22.260Z,74.30
2023-01-25T19:51:53.076Z,74.66
2023-01-25T19:54:22.930Z,75.15
2023-01-25T19:56:52.794Z,73.81
2023-01-25T19:59:24.763Z,74.06
2023-01-25T20:01:53.516Z,73.94
2023-01-25T20:04:24.487Z,74.44
2023-01-25T20:06:53.046Z,74.31
2023-01-25T20:09:24.866Z,74.54
2023-01-25T20:11:57.011Z,74.98
2023-01-25T20:14:25.257Z,74.79
2023-01-25T20:16:53.568Z,74.40
2023-01-25T20:19:21.743Z,74.54
2023-01-25T20:21:49.847Z,74.37
2023-01-25T20:24:17.952Z,73.48
2023-01-25T20:26:46.199Z,73.67
2023-01-25T20:29:16.057Z,74.20
2023-01-25T20:31:46.767Z,74.24
2023-01-25T20:34:17.891Z,74.55
2023-01-25T20:36:47.510Z,74.66
2023-01-25T20:39:17.872Z,74.35
2023-01-25T20:41:46.998Z,73.88
2023-01-25T20:44:18.568Z,74.03
2023-01-25T20:46:47.043Z,74.73
2023-01-25T20:49:17.783Z,75.10
2023-01-25T20:51:47.073Z,74.30
2023-01-25T20:54:15.880Z,74.08
2023-01-25T20:56:47.621Z,74.12
2023-01-25T20:59:19.065Z,74.27
2023-01-25T21:01:47.861Z,74.81
2023-01-25T21:04:15.948Z,74.94
2023-01-25T21:06:44.058Z,74.80
2023-01-25T21:09:13.168Z,74.57
2023-01-25T21:11:41.203Z,74.37
2023-01-25T21:14:09.339Z,74.33
2023-01-25T21:16:38.811Z,74.50
2023-01-25T21:19:08.310Z,74.57
2023-01-25T21:21:38.151Z,74.05
2023-01-25T21:24:07.472Z,74.30
2023-01-25T21:26:38.206Z,74.29
2023-01-25T21:29:07.897Z,74.54
2023-01-25T21:31:42.316Z,74.66
2023-01-25T21:34:11.562Z,74.86
2023-01-25T21:36:39.678Z,74.69
2023-01-25T21:39:08.083Z,74.49
2023-01-25T21:41:36.888Z,74.14
2023-01-25T21:44:23.043Z,74.46
2023-01-25T21:47:19.815Z,74.68
2023-01-25T21:49:58.206Z,74.75
2023-01-25T21:52:26.339Z,74.53
2023-01-25T21:54:54.517Z,74.94
2023-01-25T21:57:22.736Z,74.23
2023-01-25T21:59:53.787Z,74.49
2023-01-25T22:02:23.618Z,74.38
2023-01-25T22:04:51.762Z,75.29
2023-01-25T22:07:19.939Z,75.32
2023-01-25T22:09:49.427Z,75.69
2023-01-25T22:12:17.636Z,75.83
2023-01-25T22:14:45.761Z,75.47
2023-01-25T22:17:13.847Z,74.83
2023-01-25T22:19:43.363Z,75.05
2023-01-25T22:22:11.504Z,74.99
2023-01-25T22:24:39.651Z,74.81
2023-01-25T22:27:33.525Z,75.51
2023-01-25T22:30:01.648Z,74.98
2023-01-25T22:32:29.787Z,75.58
2023-01-25T22:34:59.251Z,75.98
2023-01-25T22:37:27.684Z,75.61
2023-01-25T22:39:58.248Z,75.85
2023-01-25T22:42:26.481Z,76.23
2023-01-25T22:44:54.611Z,76.44
2023-01-25T22:47:22.707Z,76.41
2023-01-25T22:49:50.820Z,76.75
2023-01-25T22:52:20.283Z,76.28
2023-01-25T22:54:50.192Z,76.66
2023-01-25T22:57:18.477Z,76.72
2023-01-25T22:59:46.596Z,76.27
2023-01-25T23:02:14.674Z,76.25
2023-01-25T23:04:42.856Z,76.49
2023-01-25T23:07:18.385Z,76.68
2023-01-25T23:09:51.365Z,77.11
2023-01-25T23:12:19.960Z,76.98
2023-01-25T23:14:54.383Z,76.93
2023-01-25T23:17:42.407Z,77.04
2023-01-25T23:20:14.359Z,76.79
2023-01-25T23:22:42.766Z,76.97
2023-01-25T23:25:13.104Z,77.11
2023-01-25T23:27:42.117Z,77.24
2023-01-25T23:30:12.098Z,77.31
2023-01-25T23:32:49.007Z,76.77
2023-01-25T23:35:18.790Z,76.70
2023-01-25T23:37:48.463Z,76.87
2023-01-25T23:40:18.387Z,77.10
2023-01-25T23:42:46.613Z,77.30
2023-01-25T23:45:14.801Z,75.83
2023-01-25T23:47:42.882Z,75.76
2023-01-25T23:50:13.149Z,76.32
2023-01-25T23:52:41.408Z,76.29
2023-01-25T23:55:11.009Z,76.26
2023-01-25T23:57:40.659Z,76.44
